Time;durP1;ratioP1;P1;durP2;ratioP2;P2;SDS_P1;SDS_P2;PMS_P1;PMS_P2;Temp;Humidity;BMP_temperature;BMP_pressure;BME280_temperature;BME280_humidity;BME280_pressure;Samples;Min_cycle;Max_cycle;Signal;HPM_P1;HPM_P2
2022/03/19 00:01:22;;;;;;;7.67;4.67;;;11.70;95.50;;;;;;4999851;28;20368;-40
2022/03/19 00:03:52;;;;;;;11.90;5.90;;;11.70;95.50;;;;;;4993737;28;20206;-40
2022/03/19 00:06:20;;;;;;;9.83;5.03;;;11.60;95.50;;;;;;4995763;28;20222;-40
2022/03/19 00:08:55;;;;;;;8.27;5.33;;;11.60;95.40;;;;;;4989236;28;20767;-40
2022/03/19 00:11:25;;;;;;;8.17;4.83;;;11.60;95.50;;;;;;5000374;28;20701;-40
2022/03/19 00:13:52;;;;;;;8.10;5.23;;;11.60;95.30;;;;;;4999981;28;20736;-39
2022/03/19 00:16:27;;;;;;;10.07;5.40;;;11.50;95.50;;;;;;4993399;28;20256;-40
2022/03/19 00:18:57;;;;;;;8.27;5.30;;;11.50;95.40;;;;;;4990535;28;20214;-40
2022/03/19 00:21:28;;;;;;;7.80;5.60;;;11.50;95.40;;;;;;5005408;28;20709;-40
2022/03/19 00:23:58;;;;;;;6.83;5.17;;;11.50;95.40;;;;;;4997314;28;20221;-39
2022/03/19 00:26:28;;;;;;;8.50;5.37;;;11.50;95.30;;;;;;4989627;28;20748;-39
2022/03/19 00:28:57;;;;;;;10.77;5.93;;;11.40;95.30;;;;;;4989110;28;20229;-38
2022/03/19 00:31:24;;;;;;;10.23;5.00;;;11.40;95.50;;;;;;4991289;28;20210;-39
2022/03/19 00:33:52;;;;;;;8.60;5.70;;;11.40;95.30;;;;;;4989170;28;20230;-39
2022/03/19 00:36:22;;;;;;;7.83;5.00;;;11.40;95.30;;;;;;4990528;28;20214;-39
2022/03/19 00:38:49;;;;;;;9.80;5.93;;;11.40;95.70;;;;;;4995958;28;20234;-39
2022/03/19 00:41:19;;;;;;;9.50;5.60;;;11.40;95.40;;;;;;5008667;28;20206;-40
2022/03/19 00:43:46;;;;;;;10.20;5.93;;;11.40;95.30;;;;;;5005989;28;20214;-32
2022/03/19 00:46:15;;;;;;;10.37;5.90;;;11.30;95.40;;;;;;5002617;28;20225;-33
2022/03/19 00:48:42;;;;;;;9.43;5.13;;;11.30;95.70;;;;;;5007650;28;20623;-32
2022/03/19 00:51:10;;;;;;;10.30;5.77;;;11.30;95.50;;;;;;5013613;28;20272;-32
2022/03/19 00:53:37;;;;;;;7.83;5.70;;;11.30;95.40;;;;;;4989611;28;20713;-32
2022/03/19 00:56:05;;;;;;;11.53;5.63;;;11.20;95.40;;;;;;4991238;28;20630;-32
2022/03/19 00:58:32;;;;;;;11.13;5.90;;;11.20;95.30;;;;;;4991844;28;20310;-33
2022/03/19 01:01:02;;;;;;;11.70;6.40;;;11.20;95.40;;;;;;5007651;28;20681;-32
2022/03/19 01:03:30;;;;;;;10.00;6.13;;;11.20;95.40;;;;;;4990260;28;20205;-32
2022/03/19 01:06:00;;;;;;;9.37;5.80;;;11.20;95.50;;;;;;4991566;28;20225;-33
2022/03/19 01:08:29;;;;;;;10.97;5.60;;;11.10;95.50;;;;;;4988094;28;20226;-39
2022/03/19 01:11:04;;;;;;;8.23;4.87;;;11.10;95.40;;;;;;4991783;28;20201;-39
2022/03/19 01:13:31;;;;;;;9.03;5.70;;;11.10;95.40;;;;;;4994611;28;20213;-39
2022/03/19 01:15:58;;;;;;;10.47;5.60;;;11.10;95.50;;;;;;5005154;28;20212;-40
2022/03/19 01:18:27;;;;;;;8.13;5.73;;;11.10;95.40;;;;;;5005007;28;20260;-40
2022/03/19 01:20:54;;;;;;;9.73;6.03;;;11.10;95.40;;;;;;4992594;28;20266;-40
2022/03/19 01:23:21;;;;;;;9.60;5.27;;;11.10;95.50;;;;;;4996678;28;20474;-39
2022/03/19 01:25:49;;;;;;;9.00;5.40;;;11.00;95.50;;;;;;5017161;28;20217;-39
2022/03/19 01:28:21;;;;;;;8.60;5.37;;;11.00;95.40;;;;;;4990018;28;20281;-39
2022/03/19 01:30:50;;;;;;;7.53;5.20;;;11.00;95.50;;;;;;4991298;28;20230;-39
2022/03/19 01:33:20;;;;;;;7.77;4.83;;;11.00;95.40;;;;;;4989633;28;20202;-40
2022/03/19 01:35:47;;;;;;;7.90;5.03;;;11.00;95.30;;;;;;5001340;28;20266;-39
2022/03/19 01:38:14;;;;;;;9.87;5.70;;;11.00;95.40;;;;;;5003571;28;20213;-40
2022/03/19 01:40:44;;;;;;;9.93;5.43;;;11.00;95.40;;;;;;4995498;28;20263;-39
2022/03/19 01:43:17;;;;;;;8.40;5.43;;;10.90;95.40;;;;;;4998162;28;20713;-40
2022/03/19 01:45:48;;;;;;;10.83;5.73;;;10.90;95.30;;;;;;5012984;28;20223;-40
2022/03/19 01:48:15;;;;;;;7.97;5.63;;;10.90;95.40;;;;;;5017387;28;20631;-32
2022/03/19 01:50:42;;;;;;;9.10;5.77;;;10.90;95.40;;;;;;4990053;28;20677;-33
2022/03/19 01:53:12;;;;;;;9.77;5.17;;;10.90;95.30;;;;;;4990130;28;20202;-33
2022/03/19 01:55:41;;;;;;;10.57;5.57;;;10.90;95.30;;;;;;4993406;28;20209;-32
2022/03/19 01:58:11;;;;;;;9.60;5.47;;;10.90;95.50;;;;;;4990419;28;20289;-33
2022/03/19 02:00:39;;;;;;;8.60;5.10;;;10.90;95.30;;;;;;5003687;28;20248;-33
2022/03/19 02:03:09;;;;;;;8.30;5.10;;;10.80;95.20;;;;;;4995885;28;20264;-32
2022/03/19 02:05:41;;;;;;;8.93;5.70;;;10.80;95.40;;;;;;5003915;28;20217;-32
2022/03/19 02:08:08;;;;;;;9.87;5.33;;;10.80;95.30;;;;;;5000400;28;20217;-33
2022/03/19 02:10:36;;;;;;;9.00;5.07;;;10.70;95.30;;;;;;5001282;28;20686;-32
2022/03/19 02:13:05;;;;;;;9.97;5.37;;;10.70;95.20;;;;;;5001314;28;20197;-33
2022/03/19 02:15:33;;;;;;;10.03;5.20;;;10.70;95.30;;;;;;4994619;28;20234;-33
2022/03/19 02:18:00;;;;;;;9.07;4.87;;;10.70;95.30;;;;;;4999410;28;20201;-33
2022/03/19 02:20:35;;;;;;;6.90;4.60;;;10.70;95.20;;;;;;4990882;28;20299;-32
2022/03/19 02:25:48;;;;;;;9.77;4.83;;;10.70;95.10;;;;;;5005580;28;20208;-33
2022/03/19 02:28:18;;;;;;;9.60;5.10;;;10.60;95.10;;;;;;5002130;28;20759;-32
2022/03/19 02:30:48;;;;;;;7.60;4.87;;;10.50;95.30;;;;;;4994563;28;20700;-33
2022/03/19 02:33:19;;;;;;;8.47;4.37;;;10.60;95.10;;;;;;4992605;28;20241;-33
2022/03/19 02:35:49;;;;;;;8.40;4.80;;;10.50;95.10;;;;;;4996902;28;20210;-32
2022/03/19 02:38:16;;;;;;;9.63;5.40;;;10.50;95.20;;;;;;4987096;28;20210;-32
2022/03/19 02:40:46;;;;;;;7.93;4.77;;;10.50;95.30;;;;;;5002447;28;20296;-32
2022/03/19 02:43:14;;;;;;;9.77;4.93;;;10.50;95.20;;;;;;4993168;28;20259;-33
2022/03/19 02:45:48;;;;;;;9.57;5.10;;;10.50;95.10;;;;;;4988054;28;20328;-32
2022/03/19 02:48:15;;;;;;;7.97;5.23;;;10.50;95.20;;;;;;4987934;28;20224;-33
2022/03/19 02:50:45;;;;;;;7.13;4.97;;;10.40;95.10;;;;;;5002549;28;20271;-33
2022/03/19 02:53:12;;;;;;;12.03;5.37;;;10.40;95.10;;;;;;4999540;28;20206;-33
2022/03/19 02:55:43;;;;;;;9.53;5.33;;;10.40;95.20;;;;;;4997926;28;20205;-32
2022/03/19 02:58:14;;;;;;;11.50;5.53;;;10.40;95.30;;;;;;4998129;28;20245;-32
2022/03/19 03:00:42;;;;;;;8.50;5.60;;;10.40;95.20;;;;;;4993179;28;20300;-33
2022/03/19 03:03:11;;;;;;;7.43;5.50;;;10.30;95.10;;;;;;4998269;28;20292;-39
2022/03/19 03:05:41;;;;;;;9.53;5.40;;;10.30;95.20;;;;;;5022620;28;20226;-39
2022/03/19 03:08:11;;;;;;;7.97;5.20;;;10.30;95.20;;;;;;4994576;28;20221;-39
2022/03/19 03:10:42;;;;;;;10.20;5.77;;;10.30;95.20;;;;;;4986856;28;20206;-39
2022/03/19 03:13:11;;;;;;;9.17;6.00;;;10.30;95.30;;;;;;5003106;28;20496;-40
2022/03/19 03:15:41;;;;;;;8.80;5.43;;;10.30;95.30;;;;;;4992086;28;20301;-39
2022/03/19 03:18:11;;;;;;;10.57;5.90;;;10.20;95.20;;;;;;4998179;28;20562;-39
2022/03/19 03:20:41;;;;;;;10.20;6.13;;;10.20;95.30;;;;;;5005295;28;20263;-39
2022/03/19 03:23:11;;;;;;;10.77;5.87;;;10.20;95.30;;;;;;5002123;28;20340;-39
2022/03/19 03:25:38;;;;;;;12.73;6.73;;;10.10;95.20;;;;;;4986542;28;20210;-39
2022/03/19 03:28:05;;;;;;;10.20;6.57;;;10.10;95.30;;;;;;4995567;28;20682;-39
2022/03/19 03:30:37;;;;;;;10.17;6.47;;;10.10;95.40;;;;;;4990770;28;20607;-39
2022/03/19 03:33:05;;;;;;;12.90;6.30;;;10.10;95.40;;;;;;5006746;28;20615;-39
2022/03/19 03:35:32;;;;;;;10.90;6.73;;;10.00;95.60;;;;;;4997582;28;20210;-39
2022/03/19 03:38:02;;;;;;;8.20;6.33;;;10.00;95.40;;;;;;4993234;28;20612;-39
2022/03/19 03:40:31;;;;;;;11.37;6.83;;;10.00;95.40;;;;;;5010526;28;20237;-39
2022/03/19 03:43:01;;;;;;;11.93;6.87;;;9.90;95.70;;;;;;4998111;28;22580;-39
2022/03/19 03:45:30;;;;;;;10.93;6.33;;;9.90;96.10;;;;;;5008299;28;20448;-39
2022/03/19 03:48:02;;;;;;;10.27;6.73;;;9.90;95.90;;;;;;4994278;28;20614;-39
2022/03/19 03:50:32;;;;;;;12.10;7.23;;;9.80;96.10;;;;;;4990769;28;20217;-39
2022/03/19 03:53:09;;;;;;;9.00;6.50;;;9.80;96.00;;;;;;5015113;28;20216;-39
2022/03/19 03:55:37;;;;;;;12.83;6.33;;;9.80;95.90;;;;;;4990788;28;20201;-39
2022/03/19 03:58:08;;;;;;;10.57;6.47;;;9.80;95.80;;;;;;4991215;28;20202;-39
2022/03/19 04:00:38;;;;;;;10.83;6.57;;;9.80;95.80;;;;;;4991976;28;20198;-39
2022/03/19 04:03:05;;;;;;;10.00;6.83;;;9.80;96.00;;;;;;4991227;28;20218;-39
2022/03/19 04:09:56;;;;;;;10.30;6.50;;;9.70;96.20;;;;;;5007371;28;20267;-39
2022/03/19 04:12:26;;;;;;;12.57;7.23;;;9.70;96.00;;;;;;4993138;28;20209;-39
2022/03/19 04:14:56;;;;;;;11.40;6.93;;;9.60;96.10;;;;;;4990396;28;20210;-39
2022/03/19 04:17:28;;;;;;;12.30;7.17;;;9.60;96.00;;;;;;4989949;28;20637;-39
2022/03/19 04:19:57;;;;;;;12.37;7.43;;;9.60;96.00;;;;;;4995278;28;20309;-39
2022/03/19 04:22:38;;;;;;;9.13;6.67;;;9.60;96.10;;;;;;4994516;28;20206;-39
2022/03/19 04:25:14;;;;;;;13.07;7.50;;;9.60;96.10;;;;;;4991310;28;20214;-39
2022/03/19 04:27:47;;;;;;;10.27;7.57;;;9.50;96.00;;;;;;4989729;28;20611;-39
2022/03/19 04:30:16;;;;;;;10.20;6.83;;;9.60;96.00;;;;;;4997095;28;20329;-39
2022/03/19 04:32:55;;;;;;;10.33;6.97;;;9.50;95.90;;;;;;4993406;28;20673;-39
2022/03/19 04:38:18;;;;;;;11.83;7.43;;;9.50;96.10;;;;;;5004757;28;20210;-39
2022/03/19 04:40:49;;;;;;;12.67;7.87;;;9.50;96.00;;;;;;4993608;28;20194;-39
2022/03/19 04:43:19;;;;;;;12.60;7.77;;;9.40;96.00;;;;;;5006621;28;20205;-40
2022/03/19 04:45:49;;;;;;;12.37;7.77;;;9.40;96.10;;;;;;5009557;28;20288;-40
2022/03/19 04:48:19;;;;;;;11.03;7.20;;;9.40;95.90;;;;;;4989989;28;20693;-40
2022/03/19 04:50:48;;;;;;;12.83;7.30;;;9.30;95.90;;;;;;4997004;28;20276;-40
2022/03/19 04:53:18;;;;;;;13.20;8.00;;;9.30;96.00;;;;;;4990777;28;20248;-39
2022/03/19 04:55:50;;;;;;;10.23;7.30;;;9.30;96.00;;;;;;4988862;28;20238;-40
2022/03/19 04:58:18;;;;;;;12.77;7.77;;;9.30;96.00;;;;;;4989879;28;20220;-40
2022/03/19 05:00:49;;;;;;;12.40;8.03;;;9.30;96.00;;;;;;4998733;28;20271;-40
2022/03/19 05:03:16;;;;;;;11.10;8.27;;;9.30;95.90;;;;;;5003656;28;20641;-40
2022/03/19 05:05:48;;;;;;;10.63;7.90;;;9.20;96.30;;;;;;4993116;28;20230;-40
2022/03/19 05:08:21;;;;;;;13.37;8.07;;;9.20;96.20;;;;;;4989213;28;20264;-40
2022/03/19 05:13:36;;;;;;;11.67;7.37;;;9.10;96.20;;;;;;4992702;28;20233;-41
2022/03/19 05:16:04;;;;;;;10.17;7.67;;;9.10;96.00;;;;;;4989934;28;20302;-40
2022/03/19 05:18:31;;;;;;;12.60;8.37;;;9.10;96.00;;;;;;4992066;28;20292;-40
2022/03/19 05:21:00;;;;;;;12.23;8.50;;;9.10;96.10;;;;;;4992483;28;20209;-40
2022/03/19 05:23:27;;;;;;;13.17;8.43;;;9.10;96.20;;;;;;5000505;28;20348;-39
2022/03/19 05:25:58;;;;;;;11.73;7.73;;;9.00;96.10;;;;;;4988620;28;20229;-40
2022/03/19 05:28:28;;;;;;;14.37;9.13;;;9.00;96.10;;;;;;5011039;28;20479;-40
2022/03/19 05:30:57;;;;;;;13.33;8.23;;;9.00;96.30;;;;;;5000118;28;20307;-40
2022/03/19 05:36:17;;;;;;;13.27;8.50;;;9.00;96.10;;;;;;4998298;28;20225;-40
2022/03/19 05:38:47;;;;;;;12.43;8.67;;;9.00;96.20;;;;;;5000288;28;20230;-40
2022/03/19 05:41:20;;;;;;;12.73;8.30;;;8.90;96.20;;;;;;4998529;28;20241;-40
2022/03/19 05:43:50;;;;;;;12.73;7.40;;;8.90;96.20;;;;;;5003150;28;20233;-40
2022/03/19 05:46:19;;;;;;;14.13;8.63;;;8.90;96.10;;;;;;4997303;28;20213;-40
2022/03/19 05:48:50;;;;;;;10.87;7.87;;;8.90;96.10;;;;;;4997303;28;20210;-40
2022/03/19 05:51:20;;;;;;;16.00;8.27;;;8.90;96.10;;;;;;5005370;28;20567;-40
2022/03/19 05:53:47;;;;;;;11.90;7.63;;;8.90;96.20;;;;;;5005063;28;20217;-40
2022/03/19 05:56:16;;;;;;;14.10;8.10;;;8.90;96.20;;;;;;4995363;28;20304;-40
2022/03/19 05:58:43;;;;;;;13.23;7.77;;;8.90;96.30;;;;;;4990673;28;20327;-40
2022/03/19 06:01:16;;;;;;;13.70;8.40;;;8.90;96.20;;;;;;4990131;28;20209;-40
2022/03/19 06:03:43;;;;;;;14.43;8.10;;;8.90;96.20;;;;;;4991876;28;20207;-40
2022/03/19 06:06:11;;;;;;;12.37;8.17;;;8.90;96.10;;;;;;4991663;28;20300;-40
2022/03/19 06:08:38;;;;;;;11.70;7.30;;;8.80;96.30;;;;;;4988291;28;20210;-40
2022/03/19 06:11:10;;;;;;;15.00;7.77;;;8.80;96.20;;;;;;4995330;28;20210;-40
2022/03/19 06:13:40;;;;;;;15.97;8.40;;;8.80;96.40;;;;;;5005946;28;20197;-40
2022/03/19 06:16:07;;;;;;;13.10;8.40;;;8.80;96.30;;;;;;5000668;28;20218;-40
2022/03/19 06:18:38;;;;;;;15.40;7.97;;;8.80;96.20;;;;;;5007025;28;20194;-39
2022/03/19 06:21:05;;;;;;;11.10;7.73;;;8.80;96.50;;;;;;4995266;28;20198;-40
2022/03/19 06:23:35;;;;;;;13.10;7.83;;;8.80;96.40;;;;;;4993997;28;20218;-40
2022/03/19 06:26:02;;;;;;;14.73;7.87;;;8.80;96.20;;;;;;5003406;28;20201;-40
2022/03/19 06:28:29;;;;;;;11.50;7.77;;;8.80;96.20;;;;;;5006238;28;20236;-40
2022/03/19 06:30:59;;;;;;;11.90;8.30;;;8.80;96.20;;;;;;4996383;28;20202;-40
2022/03/19 06:33:28;;;;;;;17.27;8.97;;;8.70;96.30;;;;;;4993613;28;20217;-39
2022/03/19 06:38:45;;;;;;;12.87;7.83;;;8.70;96.40;;;;;;4997060;28;20488;-39
2022/03/19 06:41:17;;;;;;;13.97;9.10;;;8.70;96.20;;;;;;4992616;28;20345;-40
2022/03/19 06:43:47;;;;;;;18.83;8.63;;;8.80;96.40;;;;;;4994804;28;20284;-40
2022/03/19 06:46:14;;;;;;;16.77;9.70;;;8.80;96.30;;;;;;5000076;28;20482;-40
2022/03/19 06:48:46;;;;;;;12.33;9.10;;;8.70;96.40;;;;;;5004012;28;20697;-39
2022/03/19 06:51:14;;;;;;;16.30;8.97;;;8.70;96.80;;;;;;4989244;28;20215;-40
2022/03/19 06:53:46;;;;;;;18.00;9.57;;;8.70;96.50;;;;;;4993800;28;20240;-39
2022/03/19 06:56:16;;;;;;;20.33;9.37;;;8.70;96.90;;;;;;5002603;28;20210;-39
2022/03/19 06:58:46;;;;;;;16.87;9.40;;;8.70;96.60;;;;;;4994781;28;20332;-40
2022/03/19 07:01:16;;;;;;;14.73;9.47;;;8.70;96.50;;;;;;4987132;28;20207;-40
2022/03/19 07:03:48;;;;;;;14.90;9.43;;;8.70;96.60;;;;;;4996004;28;20209;-40
2022/03/19 07:06:21;;;;;;;16.60;9.03;;;8.70;97.00;;;;;;5000356;28;20631;-40
2022/03/19 07:09:08;;;;;;;16.70;9.00;;;8.70;96.70;;;;;;5008053;28;20217;-40
2022/03/19 07:11:36;;;;;;;15.53;8.63;;;8.80;96.70;;;;;;5000429;28;20248;-40
2022/03/19 07:14:05;;;;;;;15.30;8.37;;;8.80;96.70;;;;;;5002773;28;20707;-40
2022/03/19 07:16:33;;;;;;;16.23;8.97;;;8.90;96.80;;;;;;4998707;28;20374;-38
2022/03/19 07:19:04;;;;;;;21.63;9.47;;;8.80;97.20;;;;;;4995199;28;20195;-40
2022/03/19 07:21:31;;;;;;;15.00;8.67;;;8.90;97.00;;;;;;4996898;28;20709;-40
2022/03/19 07:24:00;;;;;;;19.40;8.10;;;8.90;96.90;;;;;;4996393;28;20227;-40
2022/03/19 07:26:32;;;;;;;31.70;10.00;;;9.00;96.80;;;;;;4998719;28;20217;-40
2022/03/19 07:29:04;;;;;;;22.20;9.10;;;9.00;96.90;;;;;;5003217;28;20202;-40
2022/03/19 07:31:39;;;;;;;19.17;8.73;;;9.00;97.00;;;;;;5000398;28;20390;-40
2022/03/19 07:34:10;;;;;;;17.70;8.67;;;9.10;97.00;;;;;;5004502;28;20223;-40
2022/03/19 07:36:38;;;;;;;19.13;8.17;;;9.10;97.10;;;;;;4995982;28;20205;-40
2022/03/19 07:39:09;;;;;;;12.87;7.77;;;9.10;97.10;;;;;;5005878;28;20205;-40
2022/03/19 07:41:45;;;;;;;26.83;9.50;;;9.20;97.00;;;;;;4995924;28;20206;-40
2022/03/19 07:44:17;;;;;;;32.50;10.60;;;9.20;97.00;;;;;;4997676;28;20654;-40
2022/03/19 07:46:46;;;;;;;24.73;9.13;;;9.30;97.30;;;;;;5018836;28;20324;-41
2022/03/19 07:49:18;;;;;;;16.27;8.87;;;9.30;97.10;;;;;;5006543;28;20254;-40
2022/03/19 07:51:54;;;;;;;22.70;8.60;;;9.40;97.10;;;;;;4993875;28;20309;-40
2022/03/19 07:54:27;;;;;;;20.83;8.17;;;9.40;97.20;;;;;;4991208;28;20230;-39
2022/03/19 07:56:57;;;;;;;14.50;6.77;;;9.50;97.20;;;;;;4995667;28;21207;-40
2022/03/19 07:59:28;;;;;;;12.70;7.37;;;9.50;97.20;;;;;;4998466;28;20300;-39
2022/03/19 08:01:56;;;;;;;12.37;7.00;;;9.60;97.30;;;;;;4991357;28;20212;-40
2022/03/19 08:04:30;;;;;;;16.17;7.10;;;9.60;97.30;;;;;;5005466;28;20751;-40
2022/03/19 08:07:02;;;;;;;11.60;6.70;;;9.70;97.50;;;;;;5003651;28;20252;-40
2022/03/19 08:09:36;;;;;;;14.50;7.40;;;9.70;97.30;;;;;;4997823;28;20227;-40
2022/03/19 08:12:05;;;;;;;12.60;6.83;;;9.80;97.50;;;;;;4991767;28;20700;-39
2022/03/19 08:14:32;;;;;;;11.87;6.47;;;9.80;97.70;;;;;;4996809;28;20659;-40
2022/03/19 08:17:04;;;;;;;10.20;6.27;;;9.80;97.40;;;;;;4991093;28;20214;-39
2022/03/19 08:19:32;;;;;;;10.17;6.20;;;9.90;97.50;;;;;;4993670;28;20681;-39
2022/03/19 08:22:20;;;;;;;11.93;6.30;;;10.00;97.00;;;;;;4993990;28;20674;-39
2022/03/19 08:24:47;;;;;;;12.93;6.00;;;10.00;97.20;;;;;;5002757;28;20197;-38
2022/03/19 08:27:18;;;;;;;17.63;5.63;;;10.00;97.30;;;;;;5000601;28;20269;-40
2022/03/19 08:29:51;;;;;;;7.93;5.30;;;10.10;97.10;;;;;;4999376;28;20264;-40
2022/03/19 08:32:22;;;;;;;8.80;5.37;;;10.10;97.10;;;;;;4996923;28;20212;-39
2022/03/19 08:34:52;;;;;;;11.73;5.90;;;10.20;97.10;;;;;;4991013;28;20273;-40
2022/03/19 08:37:19;;;;;;;11.83;5.80;;;10.30;97.10;;;;;;4992834;28;20198;-40
2022/03/19 08:42:36;;;;;;;11.23;5.40;;;10.40;97.20;;;;;;4993506;28;20205;-39
2022/03/19 08:45:03;;;;;;;10.83;5.50;;;10.50;97.20;;;;;;4990826;28;20850;-39
2022/03/19 08:47:30;;;;;;;10.87;5.20;;;10.50;97.20;;;;;;4991153;28;20256;-39
2022/03/19 08:50:03;;;;;;;10.73;5.27;;;10.60;97.30;;;;;;4990479;28;20288;-39
2022/03/19 08:52:33;;;;;;;9.03;4.90;;;10.60;97.20;;;;;;5001102;28;20209;-39
2022/03/19 08:55:02;;;;;;;8.77;5.20;;;10.70;97.30;;;;;;4989582;28;20238;-38
2022/03/19 08:57:33;;;;;;;9.67;5.13;;;10.70;97.30;;;;;;4993695;28;20586;-39
2022/03/19 09:00:07;;;;;;;9.60;5.33;;;10.80;97.30;;;;;;5024158;28;20296;-40
2022/03/19 09:02:41;;;;;;;13.13;5.13;;;10.80;97.30;;;;;;5006961;28;20209;-39
2022/03/19 09:05:09;;;;;;;13.33;5.20;;;10.90;97.30;;;;;;4989701;28;20744;-39
2022/03/19 09:07:36;;;;;;;9.53;4.70;;;10.90;97.30;;;;;;4995182;28;20210;-40
2022/03/19 09:10:04;;;;;;;11.40;4.57;;;11.00;97.30;;;;;;5008049;28;20283;-39
2022/03/19 09:12:40;;;;;;;10.03;4.40;;;11.10;97.30;;;;;;5005716;28;20204;-39
2022/03/19 09:15:11;;;;;;;10.53;4.30;;;11.10;97.30;;;;;;5001540;28;20633;-39
2022/03/19 09:17:40;;;;;;;8.67;4.20;;;11.20;97.30;;;;;;4998730;28;20203;-38
2022/03/19 09:20:10;;;;;;;19.63;5.37;;;11.20;97.30;;;;;;4999552;28;20701;-39
2022/03/19 09:22:40;;;;;;;7.40;3.70;;;11.30;97.20;;;;;;4989470;28;20264;-38
2022/03/19 09:25:09;;;;;;;16.37;4.57;;;11.40;97.30;;;;;;4999123;28;20426;-39
2022/03/19 09:27:39;;;;;;;28.87;5.87;;;11.40;97.30;;;;;;4990983;28;20819;-40
2022/03/19 09:30:08;;;;;;;10.23;4.50;;;11.50;97.30;;;;;;4991045;28;20238;-38
2022/03/19 09:32:38;;;;;;;16.23;3.93;;;11.50;97.20;;;;;;5001413;28;20737;-38
2022/03/19 09:35:05;;;;;;;10.30;4.50;;;11.50;97.10;;;;;;5005957;28;20460;-39
2022/03/19 09:37:33;;;;;;;13.33;4.23;;;11.60;97.20;;;;;;5017935;28;20218;-39
2022/03/19 09:40:00;;;;;;;9.50;4.10;;;11.60;97.20;;;;;;4998936;28;20284;-38
2022/03/19 09:42:28;;;;;;;12.70;4.23;;;11.70;97.20;;;;;;5003041;28;20206;-38
2022/03/19 09:45:00;;;;;;;14.83;3.70;;;11.80;97.30;;;;;;5007637;28;20303;-38
2022/03/19 09:47:30;;;;;;;16.57;5.10;;;11.90;97.40;;;;;;5001179;28;20229;-38
2022/03/19 09:49:59;;;;;;;10.00;4.20;;;11.90;97.00;;;;;;4993318;28;20709;-39
2022/03/19 09:52:35;;;;;;;10.87;4.20;;;11.90;96.90;;;;;;4998373;28;20651;-39
2022/03/19 09:55:07;;;;;;;8.83;3.77;;;12.00;97.10;;;;;;5004463;28;20470;-38
2022/03/19 09:57:35;;;;;;;10.43;4.17;;;12.00;97.10;;;;;;5004830;28;20214;-38
2022/03/19 10:00:07;;;;;;;8.60;4.13;;;12.10;97.20;;;;;;5003650;28;20256;-39
2022/03/19 10:02:51;;;;;;;6.87;3.53;;;12.10;97.20;;;;;;4997885;28;20211;-39
2022/03/19 10:10:55;;;;;;;7.57;4.17;;;12.30;97.10;;;;;;5001332;28;20718;-39
2022/03/19 10:13:26;;;;;;;10.70;4.03;;;12.40;97.30;;;;;;5002342;28;20209;-38
2022/03/19 10:15:54;;;;;;;11.43;3.67;;;12.40;97.30;;;;;;5006174;28;20216;-39
2022/03/19 10:18:31;;;;;;;9.77;4.33;;;12.50;97.30;;;;;;5005536;28;20623;-38
2022/03/19 10:21:15;;;;;;;9.37;4.00;;;12.50;97.10;;;;;;4996946;28;20202;-39
2022/03/19 10:23:45;;;;;;;9.13;4.10;;;12.60;96.80;;;;;;4999469;28;20212;-38
2022/03/19 10:26:30;;;;;;;4.60;3.30;;;12.60;97.20;;;;;;4988903;28;20289;-38
2022/03/19 10:29:02;;;;;;;9.90;3.90;;;12.70;97.10;;;;;;4998307;28;20603;-39
2022/03/19 10:31:37;;;;;;;6.37;3.67;;;12.70;97.10;;;;;;4990853;28;20346;-39
2022/03/19 10:34:08;;;;;;;7.20;3.50;;;12.70;97.30;;;;;;5004769;28;20316;-39
2022/03/19 10:36:45;;;;;;;11.90;3.70;;;12.80;97.20;;;;;;4987914;28;20210;-39
2022/03/19 10:39:26;;;;;;;7.63;3.47;;;12.80;96.80;;;;;;4998833;28;20304;-39
2022/03/19 10:41:58;;;;;;;10.47;3.60;;;12.80;96.60;;;;;;4995593;28;20202;-39
2022/03/19 10:44:28;;;;;;;7.33;3.70;;;12.80;96.10;;;;;;4993876;28;20723;-37
2022/03/19 10:46:59;;;;;;;7.47;3.58;;;12.90;96.10;;;;;;5005793;28;20342;-38
2022/03/19 10:49:30;;;;;;;9.87;4.13;;;12.90;96.40;;;;;;4995287;28;20305;-38
2022/03/19 10:52:04;;;;;;;10.93;4.10;;;12.90;96.50;;;;;;4996113;28;20348;-39
2022/03/19 10:54:34;;;;;;;7.60;3.47;;;12.90;96.30;;;;;;5003470;28;20597;-40
2022/03/19 10:57:03;;;;;;;6.63;3.60;;;13.00;96.60;;;;;;4991510;28;20237;-33
2022/03/19 10:59:33;;;;;;;9.27;3.57;;;13.10;96.70;;;;;;4994629;28;20253;-33
2022/03/19 11:02:01;;;;;;;7.60;3.50;;;13.10;96.80;;;;;;5000598;28;20214;-33
2022/03/19 11:04:31;;;;;;;18.90;4.10;;;13.20;96.60;;;;;;5003823;28;20279;-33
2022/03/19 11:07:04;;;;;;;5.90;3.37;;;13.20;96.50;;;;;;5002407;28;20841;-33
2022/03/19 11:09:39;;;;;;;8.43;3.70;;;13.20;96.50;;;;;;5000586;28;20771;-38
2022/03/19 11:12:09;;;;;;;13.87;3.67;;;13.30;96.60;;;;;;5004060;28;20205;-38
2022/03/19 11:14:41;;;;;;;8.82;3.70;;;13.40;96.60;;;;;;4991764;28;20312;-38
2022/03/19 11:17:23;;;;;;;10.57;3.40;;;13.40;96.00;;;;;;4994366;28;20197;-38
2022/03/19 11:19:59;;;;;;;9.33;3.63;;;13.40;96.30;;;;;;4991142;28;20222;-39
2022/03/19 11:22:55;;;;;;;7.03;3.30;;;13.40;96.30;;;;;;5000425;28;20216;-37
2022/03/19 11:25:57;;;;;;;6.60;3.00;;;13.50;95.60;;;;;;4992820;28;20202;-38
2022/03/19 11:28:24;;;;;;;12.27;3.10;;;13.50;95.50;;;;;;5000076;28;20344;-39
2022/03/19 11:31:04;;;;;;;5.77;2.77;;;13.50;95.50;;;;;;4990429;28;20324;-39
2022/03/19 11:33:36;;;;;;;13.03;3.23;;;13.50;94.90;;;;;;4986782;28;20631;-39
2022/03/19 11:36:12;;;;;;;13.60;3.60;;;13.40;94.10;;;;;;5000070;28;20214;-38
2022/03/19 11:38:41;;;;;;;7.73;3.20;;;13.50;93.70;;;;;;4989967;28;20598;-38
2022/03/19 11:41:29;;;;;;;9.10;3.17;;;13.50;94.60;;;;;;4989331;28;20611;-39
2022/03/19 11:44:28;;;;;;;10.67;3.07;;;13.60;95.10;;;;;;4996242;28;20751;-38
2022/03/19 11:47:11;;;;;;;7.63;3.40;;;13.60;94.70;;;;;;4989438;28;20272;-41
2022/03/19 11:49:50;;;;;;;9.17;4.00;;;13.70;95.20;;;;;;4995217;28;20210;-33
2022/03/19 11:52:24;;;;;;;7.73;3.90;;;13.70;94.60;;;;;;4996663;28;20616;-33
2022/03/19 11:55:00;;;;;;;9.03;3.53;;;13.80;95.20;;;;;;4992460;28;20708;-33
2022/03/19 11:57:59;;;;;;;8.80;3.40;;;13.80;94.60;;;;;;5005538;28;20300;-34
2022/03/19 12:00:31;;;;;;;6.50;3.20;;;13.90;95.40;;;;;;4994987;28;20220;-33
2022/03/19 12:03:03;;;;;;;6.43;3.10;;;13.90;95.60;;;;;;5001454;28;20201;-34
2022/03/19 12:05:40;;;;;;;6.40;3.80;;;14.00;95.60;;;;;;5007694;28;20293;-33
2022/03/19 12:08:26;;;;;;;8.90;3.97;;;14.00;95.40;;;;;;5006527;28;20288;-34
2022/03/19 12:11:15;;;;;;;15.53;4.37;;;14.00;95.30;;;;;;5007060;28;20217;-34
2022/03/19 12:13:49;;;;;;;10.83;4.00;;;14.10;95.40;;;;;;5006248;28;20229;-34
2022/03/19 12:16:40;;;;;;;10.47;4.23;;;14.10;95.30;;;;;;4998109;28;20288;-34
2022/03/19 12:19:15;;;;;;;11.30;3.60;;;14.20;95.50;;;;;;5001791;28;20337;-35
2022/03/19 12:21:47;;;;;;;10.33;3.33;;;14.20;95.40;;;;;;5003518;28;20709;-35
2022/03/19 12:24:35;;;;;;;8.07;3.63;;;14.30;95.60;;;;;;5008121;28;20645;-33
2022/03/19 12:27:04;;;;;;;7.33;3.23;;;14.30;95.10;;;;;;4998483;28;20205;-33
2022/03/19 12:29:34;;;;;;;6.60;3.43;;;14.30;94.70;;;;;;4992292;28;20248;-33
2022/03/19 12:32:04;;;;;;;5.00;3.50;;;14.40;95.20;;;;;;5000983;28;20222;-33
2022/03/19 12:34:32;;;;;;;8.73;3.92;;;14.40;95.10;;;;;;4996307;28;20671;-33
2022/03/19 12:37:02;;;;;;;5.53;3.75;;;14.40;95.20;;;;;;4994416;28;20639;-33
2022/03/19 12:39:32;;;;;;;8.03;3.87;;;14.40;94.50;;;;;;4992747;28;20237;-33
2022/03/19 12:42:02;;;;;;;6.20;3.78;;;14.50;95.40;;;;;;5006700;28;20206;-33
2022/03/19 12:44:36;;;;;;;8.50;4.18;;;14.50;95.20;;;;;;4989397;28;20198;-33
2022/03/19 12:47:10;;;;;;;7.82;3.75;;;14.50;95.50;;;;;;5006357;28;20802;-33
2022/03/19 12:49:37;;;;;;;6.88;4.38;;;14.60;95.60;;;;;;5002721;28;20199;-34
2022/03/19 12:52:10;;;;;;;8.05;3.83;;;14.60;95.00;;;;;;5003850;28;20265;-33
2022/03/19 12:54:45;;;;;;;6.70;4.00;;;14.60;94.60;;;;;;4988523;28;20230;-34
2022/03/19 12:57:25;;;;;;;6.40;3.93;;;14.60;95.00;;;;;;5006572;28;20209;-34
2022/03/19 13:00:00;;;;;;;6.60;4.03;;;14.70;95.40;;;;;;5000938;28;20645;-34
2022/03/19 13:02:27;;;;;;;5.80;3.73;;;14.70;95.50;;;;;;5004350;28;20213;-33
2022/03/19 13:04:57;;;;;;;9.10;4.00;;;14.80;95.70;;;;;;5006978;28;20822;-34
2022/03/19 13:07:27;;;;;;;5.33;3.60;;;14.80;95.50;;;;;;5001998;28;20215;-34
2022/03/19 13:09:56;;;;;;;7.60;4.22;;;14.90;95.80;;;;;;5005033;28;20208;-33
2022/03/19 13:12:24;;;;;;;8.50;4.60;;;14.90;95.50;;;;;;5001606;28;20436;-34
2022/03/19 13:14:57;;;;;;;9.87;3.93;;;14.90;95.50;;;;;;4994849;28;20209;-34
2022/03/19 13:17:26;;;;;;;7.38;4.55;;;15.00;95.70;;;;;;4991683;28;20202;-33
2022/03/19 13:19:53;;;;;;;5.63;4.20;;;14.90;95.10;;;;;;4998845;28;20195;-33
2022/03/19 13:22:26;;;;;;;15.47;5.27;;;15.00;95.30;;;;;;4993257;28;20222;-34
2022/03/19 13:24:55;;;;;;;6.13;3.83;;;15.00;94.60;;;;;;5005491;28;20211;-33
2022/03/19 13:27:35;;;;;;;6.72;4.10;;;15.00;95.00;;;;;;4996875;28;20297;-33
2022/03/19 13:30:12;;;;;;;8.13;4.00;;;15.00;94.70;;;;;;4995424;28;20220;-33
2022/03/19 13:32:42;;;;;;;5.78;3.90;;;15.00;93.60;;;;;;5001571;28;20312;-33